Time,TemperatureF,DewpointF,PressureIn,WindDirection,WindDirectionDegrees,WindSpeedMPH,WindSpeedGustMPH,Humidity,HourlyPrecipIn,Conditions,Clouds,dailyrainin,SoftwareType,DateUTC
2013-02-01 00:23:00,38.7,23.1,30.07,SE,146,0.0,17.0,53,0.00,,---,0.00,VWS V13.01,2013-02-01 05:23:00,
2013-02-01 00:53:00,38.1,23.4,30.06,SSE,155,6.0,22.0,55,0.00,,---,0.00,VWS V13.01,2013-02-01 05:53:00,
2013-02-01 01:23:00,37.6,23.3,30.06,NNE,26,3.0,14.0,56,0.00,,---,0.00,VWS V13.01,2013-02-01 06:23:00,
2013-02-01 01:53:00,37.6,23.8,30.04,South,173,5.0,18.0,57,0.00,,---,0.00,VWS V13.01,2013-02-01 06:53:00,
2013-02-01 02:23:00,37.6,23.8,30.03,South,189,4.0,10.0,57,0.00,,---,0.00,VWS V13.01,2013-02-01 07:23:00,
2013-02-01 02:53:00,37.8,24.0,30.02,South,182,0.0,15.0,57,0.00,,---,0.00,VWS V13.01,2013-02-01 07:53:00,
2013-02-01 03:23:00,38.3,24.0,30.01,NW,317,1.0,17.0,56,0.00,,---,0.00,VWS V13.01,2013-02-01 08:23:00,
2013-02-01 03:53:00,38.4,24.1,29.99,NE,39,3.0,15.0,56,0.00,,---,0.00,VWS V13.01,2013-02-01 08:53:00,
2013-02-01 04:23:00,38.5,24.6,29.99,SSW,207,2.0,12.0,57,0.00,,---,0.00,VWS V13.01,2013-02-01 09:23:00,
2013-02-01 04:53:00,38.4,24.5,29.99,SSE,158,1.0,16.0,57,0.00,,---,0.00,VWS V13.01,2013-02-01 09:53:00,
2013-02-01 05:23:00,38.2,24.7,30.00,NNW,337,2.0,9.0,58,0.00,,---,0.00,VWS V13.01,2013-02-01 10:23:00,
2013-02-01 05:53:00,38.6,25.1,30.02,WNW,290,0.0,10.0,58,0.00,,---,0.00,VWS V13.01,2013-02-01 10:53:00,
2013-02-01 06:23:00,39.1,25.6,30.05,SSE,164,1.0,12.0,58,0.00,,---,0.00,VWS V13.01,2013-02-01 11:23:00,
2013-02-01 06:53:00,38.3,25.6,30.07,North,359,0.0,11.0,60,0.00,,---,0.00,VWS V13.01,2013-02-01 11:53:00,
2013-02-01 07:23:00,38.2,18.2,30.09,WNW,288,11.0,15.0,44,0.00,,---,0.00,VWS V13.01,2013-02-01 12:23:00,
2013-02-01 07:53:00,37.1,10.0,30.12,NNW,330,1.0,14.0,32,0.00,,---,0.00,VWS V13.01,2013-02-01 12:53:00,
2013-02-01 08:23:00,36.0,13.5,30.17,NNW,341,5.0,13.0,39,0.00,,---,0.00,VWS V13.01,2013-02-01 13:23:00,
2013-02-01 08:53:00,35.0,10.1,30.19,NNW,343,0.0,11.0,35,0.00,,---,0.00,VWS V13.01,2013-02-01 13:53:00,
2013-02-01 09:23:00,34.8,8.0,30.22,NNW,345,4.0,15.0,32,0.00,,---,0.00,VWS V13.01,2013-02-01 14:23:00,
2013-02-01 09:53:00,36.6,7.4,30.23,NNE,12,1.0,10.0,29,0.00,,---,0.00,VWS V13.01,2013-02-01 14:53:00,
2013-02-01 10:23:00,37.5,6.6,30.25,North,1,3.0,11.0,27,0.00,,---,0.00,VWS V13.01,2013-02-01 15:23:00,
2013-02-01 10:53:00,38.5,6.6,30.26,North,1,4.0,12.0,26,0.00,,---,0.00,VWS V13.01,2013-02-01 15:53:00,
2013-02-01 11:23:00,37.7,10.5,30.27,NNW,344,0.0,12.0,32,0.00,,---,0.00,VWS V13.01,2013-02-01 16:23:00,
2013-02-01 11:53:00,37.4,9.5,30.28,NE,52,2.0,12.0,31,0.00,,---,0.00,VWS V13.01,2013-02-01 16:53:00,
2013-02-01 12:23:00,37.8,9.2,30.27,NNE,20,3.0,12.0,30,0.00,,---,0.00,VWS V13.01,2013-02-01 17:23:00,
2013-02-01 12:53:00,39.9,10.2,30.27,North,351,4.0,10.0,29,0.00,,---,0.00,VWS V13.01,2013-02-01 17:53:00,
2013-02-01 13:23:00,40.5,11.5,30.26,North,351,1.0,13.0,30,0.00,,---,0.00,VWS V13.01,2013-02-01 18:23:00,
2013-02-01 13:53:00,42.9,12.1,30.26,North,4,0.0,7.0,28,0.00,,---,0.00,VWS V13.01,2013-02-01 18:53:00,
2013-02-01 14:23:00,41.6,9.3,30.26,NW,311,2.0,10.0,26,0.00,,---,0.00,VWS V13.01,2013-02-01 19:23:00,
2013-02-01 14:53:00,42.5,9.2,30.26,North,5,0.0,7.0,25,0.00,,---,0.00,VWS V13.01,2013-02-01 19:53:00,
2013-02-01 15:23:00,42.8,9.4,30.26,North,355,4.0,6.0,25,0.00,,---,0.00,VWS V13.01,2013-02-01 20:23:00,
2013-02-01 15:53:00,43.8,11.2,30.26,North,10,1.0,4.0,26,0.00,,---,0.00,VWS V13.01,2013-02-01 20:53:00,
2013-02-01 16:23:00,42.9,10.4,30.26,NNE,29,1.0,6.0,26,0.00,,---,0.00,VWS V13.01,2013-02-01 21:23:00,
2013-02-01 16:53:00,41.4,9.1,30.27,NNE,28,0.0,2.0,26,0.00,,---,0.00,VWS V13.01,2013-02-01 21:53:00,
2013-02-01 17:23:00,39.4,9.0,30.28,NNE,13,1.0,4.0,28,0.00,,---,0.00,VWS V13.01,2013-02-01 22:23:00,
2013-02-01 17:53:00,37.4,8.8,30.29,NNW,342,0.0,5.0,30,0.00,,---,0.00,VWS V13.01,2013-02-01 22:53:00,
2013-02-01 18:23:00,35.5,8.6,30.30,NNW,342,0.0,3.0,32,0.00,,---,0.00,VWS V13.01,2013-02-01 23:23:00,
2013-02-01 18:53:00,33.8,9.7,30.31,NNW,342,0.0,1.0,36,0.00,,---,0.00,VWS V13.01,2013-02-01 23:53:00,
2013-02-01 19:23:00,32.6,8.6,30.32,NNW,342,0.0,1.0,36,0.00,,---,0.00,VWS V13.01,2013-02-02 00:23:00,
2013-02-01 19:53:00,30.7,11.4,30.33,NNW,342,0.0,1.0,44,0.00,,---,0.00,VWS V13.01,2013-02-02 00:53:00,
2013-02-01 20:23:00,29.5,14.5,30.34,NNW,343,0.0,1.0,53,0.00,,---,0.00,VWS V13.01,2013-02-02 01:23:00,
2013-02-01 20:53:00,28.2,14.1,30.35,NNW,343,0.0,1.0,55,0.00,,---,0.00,VWS V13.01,2013-02-02 01:53:00,
2013-02-01 21:23:00,28.9,13.9,30.35,NNW,342,0.0,2.0,53,0.00,,---,0.00,VWS V13.01,2013-02-02 02:23:00,
2013-02-01 21:53:00,27.2,14.0,30.35,NNW,342,0.0,0.0,57,0.00,,---,0.00,VWS V13.01,2013-02-02 02:53:00,
2013-02-01 22:23:00,26.4,12.8,30.36,NNW,342,0.0,0.0,56,0.00,,---,0.00,VWS V13.01,2013-02-02 03:23:00,
2013-02-01 22:53:00,26.6,12.6,30.38,NNW,342,0.0,1.0,55,0.00,,---,0.00,VWS V13.01,2013-02-02 03:53:00,
2013-02-01 23:23:00,26.1,13.4,30.38,NNW,342,0.0,1.0,58,0.00,,---,0.00,VWS V13.01,2013-02-02 04:23:00,
2013-02-01 23:53:00,24.8,14.7,30.37,NNW,342,0.0,0.0,65,0.00,,---,0.00,VWS V13.01,2013-02-02 04:53:00,